Time;durP1;ratioP1;P1;durP2;ratioP2;P2;SDS_P1;SDS_P2;PMS_P1;PMS_P2;Temp;Humidity;BMP_temperature;BMP_pressure;BME280_temperature;BME280_humidity;BME280_pressure;Samples;Min_cycle;Max_cycle;Signal;HPM_P1;HPM_P2
2022/06/06 00:00:13;;;;;;;2.10;1.90;;;;;;;17.81;85.99;98797.84;5016440;28;102825;-68
2022/06/06 00:02:42;;;;;;;2.63;1.85;;;;;;;17.79;85.72;98793.66;5016669;27;104500;-68
2022/06/06 00:05:14;;;;;;;2.20;2.00;;;;;;;17.80;86.50;98796.16;5015244;28;103250;-68
2022/06/06 00:07:44;;;;;;;2.40;2.20;;;;;;;17.70;87.11;98790.06;5011626;28;103349;-67
2022/06/06 00:10:12;;;;;;;2.03;1.85;;;;;;;17.81;87.07;98783.63;5008972;28;103034;-67
2022/06/06 00:12:40;;;;;;;1.80;1.70;;;;;;;17.89;85.48;98789.91;5006494;28;103915;-68
2022/06/06 00:15:09;;;;;;;2.38;1.90;;;;;;;17.93;85.45;98785.09;5007551;27;104113;-68
2022/06/06 00:17:37;;;;;;;1.97;1.60;;;;;;;17.92;85.44;98797.59;5008107;28;103261;-67
2022/06/06 00:20:07;;;;;;;2.25;2.05;;;;;;;17.84;85.56;98789.53;5007186;28;102751;-67
2022/06/06 00:22:35;;;;;;;2.80;2.00;;;;;;;17.91;85.74;98785.22;5009270;28;103822;-67
2022/06/06 00:25:05;;;;;;;2.13;1.52;;;;;;;17.98;84.87;98782.78;5010807;27;104655;-67
2022/06/06 00:27:33;;;;;;;2.97;2.10;;;;;;;17.91;84.92;98782.56;5006212;28;103073;-66
2022/06/06 00:30:01;;;;;;;2.20;2.00;;;;;;;17.89;84.24;98784.56;5003507;27;104342;-67
2022/06/06 00:35:16;;;;;;;2.40;2.10;;;;;;;17.84;84.91;98786.84;5007153;27;103257;-65
2022/06/06 00:37:45;;;;;;;2.33;2.10;;;;;;;17.82;84.73;98778.13;5003942;28;103424;-64
2022/06/06 00:40:15;;;;;;;1.90;1.70;;;;;;;17.79;85.37;98778.47;4991938;28;102685;-65
2022/06/06 00:42:44;;;;;;;2.03;1.83;;;;;;;17.79;85.56;98773.13;5009665;28;103891;-65
2022/06/06 00:45:34;;;;;;;2.38;1.50;;;;;;;17.80;84.55;98777.44;5007563;28;103878;-66
2022/06/06 00:48:11;;;;;;;2.40;2.00;;;;;;;17.80;84.63;98779.28;5013308;28;103148;-67
2022/06/06 00:50:47;;;;;;;1.40;1.30;;;;;;;17.82;84.10;98772.78;5009214;28;102718;-67
2022/06/06 00:53:18;;;;;;;2.60;2.40;;;;;;;17.75;84.18;98777.09;5007051;27;102890;-67
2022/06/06 00:55:52;;;;;;;2.65;2.10;;;;;;;17.69;84.71;98769.69;5005417;27;103264;-68
2022/06/06 00:58:25;;;;;;;2.30;2.10;;;;;;;17.66;85.26;98778.00;5008069;28;103395;-67
2022/06/06 01:00:53;;;;;;;3.17;2.30;;;;;;;17.51;85.36;98763.50;5006563;28;103002;-62
2022/06/06 01:03:26;;;;;;;2.45;2.25;;;;;;;17.45;85.58;98772.09;5006481;27;104207;-62
2022/06/06 01:05:57;;;;;;;2.45;2.25;;;;;;;17.45;86.06;98769.44;5007319;28;104028;-60
2022/06/06 01:08:26;;;;;;;2.90;2.47;;;;;;;17.33;86.22;98770.63;5009087;28;104221;-62
2022/06/06 01:10:58;;;;;;;2.10;2.00;;;;;;;17.36;85.79;98760.50;5007809;27;103161;-62
2022/06/06 01:13:26;;;;;;;2.60;2.20;;;;;;;17.37;86.37;98761.34;5008235;28;102737;-62
2022/06/06 01:16:12;;;;;;;2.55;2.35;;;;;;;17.27;86.97;98760.56;5007574;28;103364;-63
2022/06/06 01:18:51;;;;;;;2.65;2.42;;;;;;;17.19;86.16;98758.66;5007181;28;104299;-62
2022/06/06 01:21:34;;;;;;;2.30;2.10;;;;;;;17.24;87.31;98759.03;5005875;27;102702;-62
2022/06/06 01:24:20;;;;;;;1.80;1.70;;;;;;;17.32;86.42;98758.25;5008849;27;104139;-63
2022/06/06 01:27:13;;;;;;;1.80;1.70;;;;;;;17.36;84.94;98760.50;5006379;27;104123;-62
2022/06/06 01:29:47;;;;;;;1.70;1.60;;;;;;;17.38;84.44;98758.50;5009402;28;103381;-59
2022/06/06 01:32:18;;;;;;;2.60;2.40;;;;;;;17.29;84.51;98758.59;5004665;28;102725;-59
2022/06/06 01:34:48;;;;;;;2.33;2.13;;;;;;;17.16;86.26;98753.63;5008257;28;104367;-60
2022/06/06 01:37:26;;;;;;;3.00;2.40;;;;;;;17.11;86.37;98745.22;5007841;28;103226;-60
2022/06/06 01:39:55;;;;;;;4.15;2.55;;;;;;;16.96;87.83;98748.53;5022745;27;104178;-60
2022/06/06 01:42:29;;;;;;;2.00;1.90;;;;;;;17.03;87.23;98749.63;5009276;28;102890;-62
2022/06/06 01:45:06;;;;;;;2.15;1.98;;;;;;;17.15;85.87;98746.59;5010229;28;103120;-60
2022/06/06 01:47:39;;;;;;;3.50;2.50;;;;;;;17.02;86.81;98742.59;5006306;28;103740;-61
2022/06/06 01:50:08;;;;;;;2.92;2.63;;;;;;;17.03;86.83;98746.97;5008198;28;103186;-60
2022/06/06 01:52:52;;;;;;;2.40;2.20;;;;;;;17.09;87.01;98741.88;5009818;27;102746;-61
2022/06/06 01:55:22;;;;;;;3.08;2.78;;;;;;;17.07;86.98;98741.16;5011465;28;102821;-60
2022/06/06 01:57:53;;;;;;;2.67;2.47;;;;;;;17.07;87.58;98734.97;5007523;28;103218;-59
2022/06/06 02:00:26;;;;;;;3.05;2.40;;;;;;;17.10;87.62;98734.69;5008617;27;104020;-61
2022/06/06 02:02:54;;;;;;;2.53;2.33;;;;;;;17.11;87.72;98733.69;5003071;27;102752;-60
2022/06/06 02:05:22;;;;;;;2.70;2.50;;;;;;;17.08;87.17;98731.34;5008458;28;103994;-61
2022/06/06 02:07:51;;;;;;;4.10;2.58;;;;;;;17.05;87.21;98732.47;5011470;28;104617;-61
2022/06/06 02:10:20;;;;;;;4.00;2.70;;;;;;;16.91;87.86;98726.81;5020122;28;103442;-60
2022/06/06 02:12:49;;;;;;;3.67;2.83;;;;;;;16.88;89.01;98729.78;5016737;27;102621;-62
2022/06/06 02:15:19;;;;;;;3.65;2.80;;;;;;;16.80;88.94;98731.38;5017746;28;102702;-62
2022/06/06 02:17:49;;;;;;;2.93;2.73;;;;;;;16.87;89.09;98736.13;5019166;27;104491;-61
2022/06/06 02:20:23;;;;;;;3.25;2.50;;;;;;;16.88;87.96;98737.78;5017857;28;103171;-61
2022/06/06 02:22:51;;;;;;;2.23;2.10;;;;;;;16.83;87.64;98740.06;5011917;27;102884;-61
2022/06/06 02:25:19;;;;;;;1.80;1.70;;;;;;;16.96;86.26;98732.53;5013201;28;103821;-62
2022/06/06 02:27:47;;;;;;;2.65;2.40;;;;;;;16.91;86.21;98729.47;5010757;28;103829;-61
2022/06/06 02:30:21;;;;;;;3.73;3.20;;;;;;;16.08;90.18;98727.72;4999723;28;103432;-61
2022/06/06 02:32:51;;;;;;;2.20;2.10;;;;;;;16.42;90.17;98731.50;5012119;27;104784;-61
2022/06/06 02:35:21;;;;;;;2.20;2.00;;;;;;;16.67;88.24;98725.53;5014100;28;104051;-61
2022/06/06 02:37:48;;;;;;;2.90;2.60;;;;;;;16.77;87.22;98720.16;5010506;28;104160;-61
2022/06/06 02:40:19;;;;;;;3.40;3.10;;;;;;;16.68;86.00;98724.53;5011028;28;103215;-61
2022/06/06 02:42:47;;;;;;;4.30;3.90;;;;;;;15.65;90.17;98725.56;5011538;28;102798;-61
2022/06/06 02:45:16;;;;;;;4.13;3.83;;;;;;;15.81;91.12;98724.94;5009953;28;103052;-60
2022/06/06 02:47:46;;;;;;;3.97;3.58;;;;;;;15.91;91.14;98739.97;5012177;27;104168;-61
2022/06/06 02:50:20;;;;;;;3.47;3.20;;;;;;;16.21;90.14;98738.88;5009554;28;103224;-61
2022/06/06 02:52:48;;;;;;;3.90;2.85;;;;;;;16.30;88.40;98739.84;5008170;27;102767;-61
2022/06/06 02:55:17;;;;;;;3.25;3.03;;;;;;;16.28;88.05;98739.97;5008210;28;102832;-61
2022/06/06 02:57:47;;;;;;;3.70;2.97;;;;;;;16.30;88.63;98746.03;5011052;28;103080;-61
2022/06/06 03:00:20;;;;;;;4.22;3.17;;;;;;;16.30;88.76;98748.69;5009805;28;103268;-60
2022/06/06 03:02:47;;;;;;;4.38;3.88;;;;;;;15.80;90.83;98744.59;5009779;28;102689;-61
2022/06/06 03:05:18;;;;;;;4.63;4.13;;;;;;;15.51;92.33;98739.28;5003705;28;104055;-60
2022/06/06 03:08:05;;;;;;;3.10;2.90;;;;;;;16.00;91.80;98747.06;5011589;27;104493;-61
2022/06/06 03:10:49;;;;;;;5.03;4.53;;;;;;;15.29;96.72;98748.38;5009857;28;104065;-61
2022/06/06 03:13:31;;;;;;;5.32;3.85;;;;;;;15.01;97.30;98752.69;5010732;27;103096;-61
2022/06/06 03:22:22;;;;;;;2.80;2.60;;;;;;;16.16;91.39;98767.81;5011049;28;102941;-61
2022/06/06 03:25:02;;;;;;;2.70;2.50;;;;;;;16.22;91.03;98778.72;5013327;28;102740;-61
2022/06/06 03:27:52;;;;;;;4.20;3.80;;;;;;;16.04;91.25;98790.28;5010695;27;103472;-61
2022/06/06 03:30:29;;;;;;;3.10;2.90;;;;;;;16.07;92.19;98784.66;5009059;27;104147;-61
2022/06/06 03:33:12;;;;;;;5.43;4.18;;;;;;;15.31;95.07;98791.66;5011164;28;103291;-61
2022/06/06 03:35:46;;;;;;;4.60;3.77;;;;;;;15.47;96.88;98799.13;5011270;28;102883;-60
2022/06/06 03:38:23;;;;;;;4.32;3.92;;;;;;;15.52;95.77;98797.72;5009854;27;104127;-60
2022/06/06 03:41:02;;;;;;;3.80;3.50;;;;;;;15.63;95.45;98799.44;5008378;28;104338;-60
2022/06/06 03:43:43;;;;;;;5.10;3.65;;;;;;;15.86;94.07;98792.81;5010279;28;103248;-60
2022/06/06 03:46:22;;;;;;;3.85;3.40;;;;;;;15.86;92.63;98795.47;5010509;27;102864;-60
2022/06/06 03:49:11;;;;;;;3.70;3.40;;;;;;;15.83;93.62;98797.59;5011375;28;104267;-61
2022/06/06 03:51:50;;;;;;;3.97;3.53;;;;;;;15.79;94.98;98801.50;5009928;28;103466;-61
2022/06/06 03:54:32;;;;;;;3.45;3.15;;;;;;;16.02;94.46;98800.25;5009261;28;102996;-61
2022/06/06 03:57:12;;;;;;;3.63;3.33;;;;;;;16.06;92.19;98798.94;5008874;28;102772;-60
2022/06/06 03:59:42;;;;;;;3.55;3.25;;;;;;;15.94;93.44;98795.63;5009743;28;102824;-61
2022/06/06 04:02:14;;;;;;;3.60;3.05;;;;;;;16.19;93.01;98799.50;5009836;28;103269;-61
2022/06/06 04:04:43;;;;;;;3.38;3.00;;;;;;;16.27;91.76;98801.44;5010631;28;103163;-60
2022/06/06 04:07:11;;;;;;;2.70;2.50;;;;;;;16.35;90.91;98799.75;5010113;28;102735;-60
2022/06/06 04:09:41;;;;;;;3.38;3.08;;;;;;;16.38;90.25;98799.47;5011182;27;102906;-60
2022/06/06 04:12:34;;;;;;;3.50;3.10;;;;;;;16.46;89.42;98799.56;5015615;28;103241;-61
2022/06/06 04:15:12;;;;;;;2.00;1.90;;;;;;;16.57;89.17;98796.75;5009926;28;103170;-64
2022/06/06 04:17:50;;;;;;;2.17;2.00;;;;;;;16.71;87.99;98796.28;4989684;28;104235;-60
2022/06/06 04:20:24;;;;;;;2.65;2.45;;;;;;;16.80;86.96;98799.88;4996672;28;102874;-60
2022/06/06 04:23:07;;;;;;;2.67;2.47;;;;;;;16.82;86.85;98805.91;5012493;27;104232;-60
2022/06/06 04:25:46;;;;;;;2.65;2.45;;;;;;;16.82;87.55;98800.56;5006074;28;103031;-61
2022/06/06 04:28:22;;;;;;;3.08;2.63;;;;;;;16.87;87.44;98794.81;5009849;27;102686;-60
2022/06/06 04:30:56;;;;;;;1.98;1.88;;;;;;;16.95;87.39;98797.56;5011876;27;104554;-60
2022/06/06 04:33:35;;;;;;;2.78;2.58;;;;;;;17.01;86.76;98794.31;5013500;28;104615;-60
2022/06/06 04:36:11;;;;;;;2.38;2.20;;;;;;;17.10;87.25;98790.72;5001550;28;104112;-60
2022/06/06 04:38:46;;;;;;;2.38;2.20;;;;;;;17.19;87.24;98796.03;5009771;28;102747;-60
2022/06/06 04:41:23;;;;;;;3.03;2.47;;;;;;;17.27;87.65;98789.94;5009404;28;104029;-61
2022/06/06 04:43:56;;;;;;;3.65;3.28;;;;;;;17.21;88.68;98787.84;5008733;28;104081;-59
2022/06/06 04:46:35;;;;;;;2.55;2.35;;;;;;;17.43;88.43;98795.47;4987393;28;103248;-60
2022/06/06 04:49:04;;;;;;;2.70;2.50;;;;;;;17.53;88.28;98790.88;5000947;28;102749;-60
2022/06/06 04:51:34;;;;;;;2.60;2.30;;;;;;;17.65;87.71;98787.03;5002060;28;104281;-60
2022/06/06 04:54:03;;;;;;;2.80;2.60;;;;;;;17.74;87.46;98807.47;5006998;28;104461;-60
2022/06/06 04:56:34;;;;;;;3.20;3.00;;;;;;;17.76;87.34;98805.50;5002855;28;103213;-60
2022/06/06 04:59:03;;;;;;;3.40;2.90;;;;;;;17.70;88.05;98806.09;5001893;28;102758;-60
2022/06/06 05:01:33;;;;;;;3.25;3.05;;;;;;;17.72;88.23;98803.25;4998432;27;103652;-65
2022/06/06 05:04:01;;;;;;;2.50;2.30;;;;;;;17.95;87.63;98801.81;5011223;27;104162;-65
2022/06/06 05:07:07;;;;;;;2.70;2.50;;;;;;;18.09;86.55;98800.41;5000051;28;103417;-65
2022/06/06 05:10:05;;;;;;;3.78;3.47;;;;;;;18.07;86.55;98802.41;5011319;27;103435;-65
2022/06/06 05:12:58;;;;;;;3.38;3.08;;;;;;;18.08;86.45;98796.88;5015819;27;104461;-65
2022/06/06 05:15:37;;;;;;;4.70;4.30;;;;;;;17.13;93.18;98795.78;5009442;28;104484;-65
2022/06/06 05:18:36;;;;;;;5.35;4.10;;;;;;;17.30;93.76;98814.50;5006910;28;103447;-66
2022/06/06 05:21:20;;;;;;;3.00;2.80;;;;;;;18.36;90.10;98813.63;5009119;28;102787;-65
2022/06/06 05:24:14;;;;;;;3.70;3.17;;;;;;;18.77;87.83;98810.25;4982633;28;103560;-65
2022/06/06 05:27:08;;;;;;;2.90;2.70;;;;;;;19.00;86.37;98808.66;4995266;28;103720;-65
2022/06/06 05:29:57;;;;;;;3.27;2.97;;;;;;;18.96;86.71;98818.03;4994279;28;103216;-65
2022/06/06 05:32:56;;;;;;;2.70;2.50;;;;;;;19.16;86.24;98820.44;4988603;27;103223;-65
2022/06/06 05:35:39;;;;;;;3.60;3.30;;;;;;;19.19;85.33;98829.00;4988051;28;104271;-66
2022/06/06 05:38:23;;;;;;;3.40;2.70;;;;;;;19.20;85.93;98816.44;5008433;28;104123;-64
2022/06/06 05:41:04;;;;;;;3.60;3.30;;;;;;;19.13;88.09;98812.72;5030618;27;104328;-65
2022/06/06 05:43:44;;;;;;;3.63;3.28;;;;;;;18.78;88.60;98822.59;5010616;28;102702;-65
2022/06/06 05:46:31;;;;;;;3.70;3.40;;;;;;;18.83;89.32;98828.34;5001983;28;102977;-65
2022/06/06 05:49:20;;;;;;;2.92;2.72;;;;;;;19.33;87.19;98819.50;5003430;28;104121;-65
2022/06/06 05:52:05;;;;;;;2.95;2.75;;;;;;;19.65;84.94;98824.94;5010362;28;104090;-66
2022/06/06 05:54:51;;;;;;;2.43;2.23;;;;;;;19.92;84.22;98827.34;5013216;28;102695;-65
2022/06/06 05:57:37;;;;;;;3.67;3.35;;;;;;;19.87;82.28;98829.69;5013849;27;104483;-65
2022/06/06 06:00:19;;;;;;;3.10;2.83;;;;;;;20.01;82.60;98820.16;5012316;27;103592;-66
2022/06/06 06:03:27;;;;;;;3.28;2.80;;;;;;;20.00;82.68;98824.66;5018194;28;103263;-60
2022/06/06 06:06:05;;;;;;;2.90;2.70;;;;;;;20.47;81.57;98823.97;5014375;27;102928;-60
2022/06/06 06:09:03;;;;;;;3.45;2.85;;;;;;;20.57;81.09;98824.66;5018980;27;104572;-60
2022/06/06 06:11:47;;;;;;;3.38;3.08;;;;;;;20.49;80.31;98835.41;5015610;28;104016;-60
2022/06/06 06:14:30;;;;;;;3.00;2.75;;;;;;;20.31;79.80;98832.06;5011750;28;103251;-60
2022/06/06 06:17:01;;;;;;;3.72;3.13;;;;;;;19.94;81.85;98840.56;5024849;27;102763;-60
2022/06/06 06:19:38;;;;;;;4.05;3.13;;;;;;;20.10;81.68;98843.25;5012468;28;104093;-60
2022/06/06 06:22:11;;;;;;;3.67;3.00;;;;;;;20.33;79.97;98840.75;5017716;27;103399;-61
2022/06/06 06:24:43;;;;;;;3.03;2.80;;;;;;;20.35;79.90;98846.81;5020709;28;103327;-61
2022/06/06 06:27:13;;;;;;;3.70;3.10;;;;;;;20.29;79.55;98842.13;5013569;27;102876;-60
2022/06/06 06:29:43;;;;;;;3.78;3.10;;;;;;;20.16;79.63;98840.75;5019145;27;102752;-61
2022/06/06 06:32:31;;;;;;;4.22;3.50;;;;;;;19.93;80.90;98838.91;5021452;28;104318;-60
2022/06/06 06:35:14;;;;;;;3.30;3.05;;;;;;;20.34;79.36;98843.31;5003535;27;103250;-65
2022/06/06 06:38:03;;;;;;;3.60;3.30;;;;;;;20.49;79.55;98846.13;5017560;28;102852;-66
2022/06/06 06:40:44;;;;;;;3.88;3.17;;;;;;;20.77;78.58;98850.94;5006283;28;102807;-66
2022/06/06 06:43:28;;;;;;;4.15;3.35;;;;;;;20.62;78.50;98852.66;4996929;27;104562;-60
2022/06/06 06:46:00;;;;;;;3.40;3.10;;;;;;;20.77;77.23;98863.53;5012290;28;103240;-60
2022/06/06 06:48:33;;;;;;;2.80;2.60;;;;;;;21.12;76.35;98873.03;5014805;28;102673;-61
2022/06/06 06:51:10;;;;;;;4.07;3.22;;;;;;;21.27;75.81;98872.13;5011254;28;103805;-61
2022/06/06 06:54:14;;;;;;;2.50;2.30;;;;;;;21.58;75.17;98877.53;5009566;27;103438;-61
2022/06/06 06:56:59;;;;;;;2.92;2.67;;;;;;;21.48;75.17;98889.50;4990765;27;103245;-61
2022/06/06 06:59:34;;;;;;;2.87;2.60;;;;;;;21.80;72.82;98882.13;5002949;28;103837;-60
2022/06/06 07:11:16;;;;;;;3.20;2.80;;;;;;;21.54;72.60;98883.41;5002702;28;102758;-61
2022/06/06 07:14:00;;;;;;;3.57;3.23;;;;;;;21.63;72.87;98885.06;5009005;28;102963;-61
2022/06/06 07:16:33;;;;;;;3.30;3.00;;;;;;;22.04;73.04;98877.59;5012377;27;103650;-61
2022/06/06 07:19:07;;;;;;;3.70;3.25;;;;;;;22.10;73.20;98877.72;5000170;27;103184;-60
2022/06/06 07:21:36;;;;;;;2.78;2.55;;;;;;;22.32;73.91;98876.88;5005423;27;102849;-61
2022/06/06 07:24:08;;;;;;;3.73;3.20;;;;;;;22.14;73.66;98873.69;5014355;28;103979;-71
2022/06/06 07:26:39;;;;;;;3.33;3.05;;;;;;;22.35;72.42;98863.06;5012757;27;104339;-70
2022/06/06 07:29:08;;;;;;;4.68;3.08;;;;;;;22.59;72.65;98863.88;5004489;27;103524;-70
2022/06/06 07:31:48;;;;;;;2.60;2.40;;;;;;;22.96;71.54;98858.47;5009557;27;103143;-70
2022/06/06 07:34:34;;;;;;;3.45;3.05;;;;;;;22.88;69.99;98853.16;5012556;28;104092;-70
2022/06/06 07:37:13;;;;;;;3.75;3.15;;;;;;;22.69;69.59;98853.69;5016983;27;104060;-70
2022/06/06 07:39:54;;;;;;;3.55;3.25;;;;;;;22.51;69.93;98856.72;5016768;28;103139;-70
2022/06/06 07:42:41;;;;;;;3.60;3.30;;;;;;;22.80;70.30;98848.69;5015913;27;104198;-70
2022/06/06 07:45:22;;;;;;;3.20;2.80;;;;;;;23.21;69.50;98845.53;5018617;27;102869;-70
2022/06/06 07:48:23;;;;;;;3.40;3.10;;;;;;;22.43;71.69;98849.53;5016376;27;104018;-70
2022/06/06 07:50:59;;;;;;;3.70;3.40;;;;;;;22.52;72.27;98845.75;4991563;27;103260;-70
2022/06/06 07:53:36;;;;;;;3.75;3.20;;;;;;;22.84;70.93;98847.31;5007839;28;103380;-70
2022/06/06 07:56:14;;;;;;;3.72;3.20;;;;;;;22.84;68.46;98841.09;5018259;27;103915;-70
2022/06/06 07:58:55;;;;;;;4.37;3.17;;;;;;;21.90;72.02;98844.25;5016212;28;103539;-70
2022/06/06 08:01:37;;;;;;;5.35;4.00;;;;;;;21.86;70.67;98837.53;5019376;27;103179;-70
2022/06/06 08:04:24;;;;;;;3.35;3.00;;;;;;;23.21;69.18;98830.22;5018835;27;102904;-70
2022/06/06 08:07:03;;;;;;;4.63;2.83;;;;;;;24.06;67.91;98833.03;5018967;28;102808;-70
2022/06/06 08:09:57;;;;;;;2.77;2.57;;;;;;;24.04;66.43;98832.41;5019019;28;103439;-70
2022/06/06 08:12:47;;;;;;;2.80;2.60;;;;;;;24.57;65.64;98829.16;5018375;28;103176;-71
2022/06/06 08:15:24;;;;;;;2.80;2.60;;;;;;;25.05;60.88;98838.25;5001911;28;102683;-70
2022/06/06 08:18:13;;;;;;;3.10;2.80;;;;;;;24.15;63.98;98834.63;5019154;28;103565;-70
2022/06/06 08:20:56;;;;;;;3.30;3.00;;;;;;;24.57;63.18;98823.75;5017819;28;103110;-71
2022/06/06 08:23:25;;;;;;;3.00;2.70;;;;;;;25.05;58.54;98816.63;5015399;28;104278;-70
2022/06/06 08:25:57;;;;;;;2.92;2.40;;;;;;;25.01;59.34;98819.94;5017281;28;102848;-70
2022/06/06 08:28:31;;;;;;;2.58;2.38;;;;;;;25.96;60.50;98819.88;5016781;27;103567;-70
2022/06/06 08:30:59;;;;;;;3.60;2.92;;;;;;;25.91;56.06;98813.19;5018285;28;103604;-70
2022/06/06 08:33:30;;;;;;;3.93;2.70;;;;;;;25.45;58.35;98806.81;5018045;27;103317;-70
2022/06/06 08:36:12;;;;;;;2.72;2.53;;;;;;;24.68;59.93;98815.13;5018998;28;102921;-71
2022/06/06 08:38:58;;;;;;;2.55;2.35;;;;;;;24.62;57.43;98824.00;5018126;28;104030;-70
2022/06/06 08:41:55;;;;;;;3.33;2.73;;;;;;;24.85;56.47;98815.66;5015878;28;103437;-70
2022/06/06 08:44:37;;;;;;;2.55;2.20;;;;;;;25.70;55.03;98815.25;5018691;28;103386;-70
2022/06/06 08:47:16;;;;;;;3.10;2.40;;;;;;;25.16;53.91;98817.91;5016581;27;102642;-71
2022/06/06 08:53:40;;;;;;;3.38;2.20;;;;;;;25.62;54.05;98810.03;5005018;28;103365;-66
2022/06/06 08:56:37;;;;;;;4.30;2.55;;;;;;;25.26;52.89;98804.88;4999145;28;103457;-66
2022/06/06 08:59:37;;;;;;;2.70;2.17;;;;;;;26.07;54.50;98800.31;4981323;27;103288;-66
2022/06/06 09:02:34;;;;;;;2.92;2.70;;;;;;;25.56;52.59;98803.56;5001268;27;103876;-66
2022/06/06 09:05:39;;;;;;;1.98;1.70;;;;;;;26.17;51.60;98806.19;5006060;28;103359;-66
2022/06/06 09:08:43;;;;;;;1.93;1.73;;;;;;;26.70;50.19;98794.28;5008046;28;103319;-66
2022/06/06 09:11:50;;;;;;;2.78;2.00;;;;;;;25.25;50.90;98797.78;5008134;28;102985;-66
2022/06/06 09:14:55;;;;;;;3.13;2.00;;;;;;;24.88;51.49;98803.63;5010268;28;104440;-68
2022/06/06 09:18:18;;;;;;;3.75;1.95;;;;;;;25.14;50.70;98801.06;5011723;27;102967;-67
2022/06/06 09:21:03;;;;;;;2.00;1.80;;;;;;;24.75;50.25;98788.16;4949168;28;103339;-67
2022/06/06 09:24:07;;;;;;;4.43;1.98;;;;;;;25.59;49.08;98792.31;4939332;28;103475;-66
2022/06/06 09:26:45;;;;;;;2.87;1.90;;;;;;;25.60;50.45;98798.59;4992836;28;104042;-67
2022/06/06 09:30:06;;;;;;;2.50;1.63;;;;;;;26.35;49.43;98790.16;5006692;27;104330;-67
2022/06/06 09:33:20;;;;;;;3.13;1.70;;;;;;;26.50;47.82;98785.34;4966880;27;103156;-67
2022/06/06 09:36:10;;;;;;;1.87;1.57;;;;;;;26.51;49.29;98781.59;4984580;28;102967;-67
2022/06/06 09:38:59;;;;;;;2.67;1.98;;;;;;;27.14;47.67;98771.06;5013934;28;104122;-67
2022/06/06 09:41:37;;;;;;;2.35;1.73;;;;;;;26.13;48.59;98770.56;5012081;27;103762;-66
2022/06/06 09:44:14;;;;;;;2.85;1.70;;;;;;;26.89;47.23;98769.03;5006053;27;104213;-67
2022/06/06 09:47:09;;;;;;;1.65;1.55;;;;;;;27.59;46.45;98772.75;5015046;27;104201;-66
2022/06/06 09:50:20;;;;;;;3.38;2.00;;;;;;;26.96;44.50;98769.84;5012233;27;103016;-67
2022/06/06 09:53:18;;;;;;;1.77;1.67;;;;;;;27.54;44.62;98773.38;5010457;27;103252;-67
2022/06/06 09:59:34;;;;;;;3.10;1.77;;;;;;;26.58;46.95;98768.88;5018869;27;102594;-67
2022/06/06 10:02:38;;;;;;;2.10;1.90;;;;;;;26.56;46.96;98773.66;5018384;28;102851;-67
2022/06/06 10:05:48;;;;;;;2.17;1.70;;;;;;;27.65;44.07;98765.63;5018283;27;104819;-67
2022/06/06 10:09:08;;;;;;;4.43;1.70;;;;;;;27.46;45.33;98764.66;5019992;28;103152;-62
2022/06/06 10:12:23;;;;;;;2.92;1.48;;;;;;;27.33;45.07;98759.28;5011003;27;102769;-68
2022/06/06 10:15:12;;;;;;;3.87;1.90;;;;;;;26.10;45.45;98756.59;4951718;28;104427;-62
2022/06/06 10:17:59;;;;;;;2.10;1.80;;;;;;;27.22;44.78;98746.41;5012484;28;103295;-62
2022/06/06 10:20:45;;;;;;;3.30;2.33;;;;;;;27.75;44.35;98747.78;5015862;28;105059;-62
2022/06/06 10:23:32;;;;;;;2.85;1.75;;;;;;;27.12;45.73;98740.63;5014401;28;102879;-62
2022/06/06 10:26:37;;;;;;;2.90;1.70;;;;;;;27.80;44.26;98744.41;5004066;27;104501;-62
2022/06/06 10:30:10;;;;;;;2.28;1.70;;;;;;;27.95;45.75;98743.06;4996995;27;103837;-63
2022/06/06 10:32:37;;;;;;;3.10;2.00;;;;;;;28.23;44.44;98739.09;5007899;28;103188;-64
2022/06/06 10:35:18;;;;;;;2.10;1.60;;;;;;;28.75;42.48;98733.16;5000640;27;102841;-62
2022/06/06 10:38:12;;;;;;;1.63;1.52;;;;;;;28.58;43.33;98738.31;5012974;28;102872;-63
2022/06/06 10:40:54;;;;;;;2.20;1.50;;;;;;;27.75;43.02;98742.38;5003226;27;103982;-63
2022/06/06 10:43:37;;;;;;;5.72;1.70;;;;;;;28.21;42.14;98741.22;5012915;27;102970;-67
2022/06/06 10:46:15;;;;;;;2.45;1.42;;;;;;;28.43;43.21;98727.00;5009914;27;103033;-67
2022/06/06 10:49:01;;;;;;;2.28;1.90;;;;;;;27.32;41.98;98728.59;5012113;28;103955;-68
2022/06/06 10:52:19;;;;;;;3.90;2.22;;;;;;;27.26;43.57;98725.91;5012380;27;104281;-67
2022/06/06 10:55:19;;;;;;;2.15;1.70;;;;;;;26.83;43.81;98723.84;4976904;28;104175;-62
2022/06/06 10:58:26;;;;;;;2.70;1.52;;;;;;;26.75;44.63;98729.44;4999036;28;104306;-62
2022/06/06 11:01:15;;;;;;;2.53;1.70;;;;;;;27.65;42.76;98720.28;5004810;28;104057;-63
2022/06/06 11:04:07;;;;;;;1.83;1.70;;;;;;;27.91;43.54;98709.25;5010841;28;104446;-62
2022/06/06 11:07:00;;;;;;;2.50;1.70;;;;;;;27.35;44.22;98711.91;5009937;28;104173;-63
2022/06/06 11:09:56;;;;;;;2.80;1.60;;;;;;;27.71;44.14;98708.56;5014020;27;102901;-62
2022/06/06 11:12:54;;;;;;;3.67;1.70;;;;;;;29.28;43.56;98704.28;5016436;28;104441;-63
2022/06/06 11:15:22;;;;;;;2.00;1.67;;;;;;;28.71;43.29;98710.22;5018338;27;104248;-62
2022/06/06 11:18:39;;;;;;;2.20;1.35;;;;;;;28.18;40.03;98699.84;5016467;28;103305;-62
2022/06/06 11:21:46;;;;;;;1.58;1.42;;;;;;;27.88;41.32;98704.25;5014741;27;102872;-63
2022/06/06 11:24:23;;;;;;;2.05;1.52;;;;;;;28.60;41.05;98700.06;5018769;27;104272;-62
2022/06/06 11:27:25;;;;;;;2.47;1.42;;;;;;;27.31;43.63;98701.72;5019426;28;103856;-61
2022/06/06 11:30:04;;;;;;;1.95;1.30;;;;;;;27.47;41.77;98690.38;5016068;28;103329;-62
2022/06/06 11:33:16;;;;;;;2.10;1.30;;;;;;;28.00;40.72;98685.38;5018457;27;102830;-62
2022/06/06 11:36:03;;;;;;;2.22;1.60;;;;;;;29.74;39.97;98684.56;5006196;27;103176;-63
2022/06/06 11:39:01;;;;;;;1.60;1.30;;;;;;;29.07;38.65;98688.44;5008713;27;103642;-63
2022/06/06 11:41:58;;;;;;;1.92;1.42;;;;;;;29.36;39.45;98689.53;5011070;28;103283;-68
2022/06/06 11:44:57;;;;;;;3.17;1.30;;;;;;;29.80;39.27;98678.22;4982694;27;104011;-68
2022/06/06 11:48:05;;;;;;;2.00;1.43;;;;;;;28.33;39.58;98679.66;4998404;27;103756;-68
2022/06/06 11:51:17;;;;;;;2.53;1.27;;;;;;;28.78;39.33;98689.22;5025854;27;103062;-67
2022/06/06 11:54:42;;;;;;;1.90;1.30;;;;;;;28.10;39.71;98675.69;5024120;27;104321;-64
2022/06/06 11:57:31;;;;;;;3.03;1.47;;;;;;;27.14;40.83;98679.69;5027528;27;102883;-68
2022/06/06 12:00:13;;;;;;;2.22;1.50;;;;;;;27.03;40.12;98689.31;5020186;27;103080;-67
2022/06/06 12:03:07;;;;;;;2.10;1.30;;;;;;;28.10;39.48;98681.13;5028025;27;103276;-68
2022/06/06 12:06:17;;;;;;;2.92;2.05;;;;;;;27.70;40.60;98678.94;5030052;27;103347;-68
2022/06/06 12:08:58;;;;;;;1.40;1.30;;;;;;;27.39;41.31;98674.34;5009664;27;103207;-68
2022/06/06 12:12:14;;;;;;;2.43;1.60;;;;;;;26.29;41.89;98682.66;5017741;27;103969;-67
2022/06/06 12:15:26;;;;;;;1.80;1.40;;;;;;;26.01;43.18;98680.19;5027840;27;103983;-67
2022/06/06 12:18:14;;;;;;;2.15;1.42;;;;;;;26.23;43.60;98678.94;5025290;27;103295;-67
2022/06/06 12:21:00;;;;;;;3.63;1.80;;;;;;;26.42;43.61;98674.50;5031516;27;102888;-68
2022/06/06 12:23:42;;;;;;;2.28;1.30;;;;;;;27.09;42.19;98678.69;5026744;27;103809;-68
2022/06/06 12:26:38;;;;;;;2.20;1.70;;;;;;;25.57;44.81;98675.38;5028328;27;104947;-67
2022/06/06 12:29:36;;;;;;;2.40;1.53;;;;;;;26.53;43.45;98671.16;5027711;27;103186;-65
2022/06/06 12:32:28;;;;;;;2.47;1.58;;;;;;;26.98;42.77;98669.34;5017378;27;103242;-67
2022/06/06 12:35:04;;;;;;;1.65;1.45;;;;;;;26.81;43.31;98669.00;5015913;27;103044;-67
2022/06/06 12:37:43;;;;;;;2.22;1.60;;;;;;;27.64;42.28;98658.94;5028531;27;103871;-67
2022/06/06 12:40:15;;;;;;;2.70;1.60;;;;;;;27.48;43.16;98654.06;5027746;27;103930;-67
2022/06/06 12:42:51;;;;;;;2.60;1.80;;;;;;;27.38;42.33;98650.97;5031563;27;102859;-67
2022/06/06 12:45:41;;;;;;;3.43;1.90;;;;;;;27.65;43.25;98652.44;5028070;27;102776;-67
2022/06/06 12:48:40;;;;;;;2.15;1.70;;;;;;;26.75;43.70;98658.16;5017696;27;103545;-67
2022/06/06 12:51:18;;;;;;;2.28;1.80;;;;;;;27.12;42.56;98648.44;5029737;27;103315;-68
2022/06/06 12:57:56;;;;;;;1.75;1.48;;;;;;;27.65;43.95;98647.03;4926445;28;103912;-68
2022/06/06 13:01:37;;;;;;;2.70;1.80;;;;;;;27.38;43.57;98642.81;4947738;28;103709;-68
2022/06/06 13:03:26;;;;;;;2.40;2.00;;;;;;;26.72;44.53;98639.63;5030999;27;103243;-69